Flight Track Log - Related Links

Times and Time Zones

All times are in EDT time to prevent confusion due to time zone crossing. See the GJS3707 flight status page for this flight to view local times or setup timezone preferences in your user account.

Time Position Orientation Groundspeed Altitude Reporting Facility
EDT Latitude Longitude Course Direction KTS MPH feet Rate Location/Type
Fri 03:05:20 PM 43.5750 -116.2567 81° East 170 196 4,000  Level Salt Lake Center
Fri 03:06:22 PM 43.5969 -116.3306 292° West 202 232 5,900 1,728 Climbing Salt Lake Center
Fri 03:07:25 PM 43.6539 -116.3364 356° North 236 272 7,600 1,536 Climbing Salt Lake Center
Fri 03:08:27 PM 43.6683 -116.2406 78° East 280 322 9,100 1,645 Climbing Salt Lake Center
Fri 03:09:00 PM 43.6721 -115.3846 81° East  Level FlightAware Approximate
Fri 03:09:29 PM 43.6844 -116.1119 80° East 307 353 11,000  Level Salt Lake Center
Fri 03:10:00 PM 43.7016 -115.2192 81° East  Level FlightAware Approximate
Fri 03:10:31 PM 43.6989 -115.9900 81° East 334 384 12,500  Level Salt Lake Center
Fri 03:11:33 PM 43.7172 -115.8369 81° East 358 412 14,900 1,984 Climbing Salt Lake Center
Fri 03:12:35 PM 43.7319 -115.7039 81° East 365 420 16,600 1,548 Climbing Salt Lake Center
Fri 03:13:37 PM 43.7525 -115.5356 80° East 398 458 18,100 1,355 Climbing Salt Lake Center
Fri 03:14:39 PM 43.7700 -115.3850 81° East 414 476 19,400 1,355 Climbing Salt Lake Center
Fri 03:15:41 PM 43.7908 -115.2014 81° East 433 498 20,900 1,306 Climbing Salt Lake Center
Fri 03:16:43 PM 43.8089 -115.0394 81° East 447 514 22,100 1,306 Climbing Salt Lake Center
Fri 03:17:45 PM 43.8303 -114.8467 81° East 454 522 23,600 1,355 Climbing Salt Lake Center
Fri 03:18:47 PM 43.8489 -114.6808 81° East 456 525 24,900 1,355 Climbing Salt Lake Center
Fri 03:19:49 PM 43.8711 -114.4867 81° East 458 527 26,400 1,306 Climbing Salt Lake Center
Fri 03:20:51 PM 43.8878 -114.3197 82° East 459 528 27,600 1,016 Climbing Salt Lake Center
Fri 03:21:53 PM 43.9092 -114.1214 81° East 468 539 28,500 823 Climbing Salt Lake Center
Fri 03:22:55 PM 43.9272 -113.9467 82° East 480 552 29,300 774 Climbing Salt Lake Center
Fri 03:23:57 PM 43.9456 -113.7653 82° East 484 557 30,100 823 Climbing Salt Lake Center
Fri 03:24:59 PM 43.9658 -113.5558 82° East 491 565 31,000 774 Climbing Salt Lake Center
Fri 03:26:01 PM 43.9817 -113.3753 83° East 491 565 31,700 581 Climbing Salt Lake Center
Fri 03:27:03 PM 44.0022 -113.1606 82° East 503 579 32,200 484 Climbing Salt Lake Center
Fri 03:28:05 PM 44.0211 -112.9733 82° East 511 588 32,700 532 Climbing Salt Lake Center
Fri 03:29:07 PM 44.0419 -112.7536 82° East 515 593 33,300 532 Climbing Salt Lake Center
Fri 03:30:09 PM 44.0575 -112.5633 83° East 518 596 33,800 484 Climbing Salt Lake Center
Fri 03:31:11 PM 44.0761 -112.3383 83° East 525 604 34,300 484 Climbing Salt Lake Center
Fri 03:32:13 PM 44.0906 -112.1472 84° East 523 602 34,800 532 Climbing Salt Lake Center
Fri 03:33:15 PM 44.0911 -111.9297 90° East 507 583 35,400 532 Climbing Salt Lake Center
Fri 03:34:17 PM 44.0922 -111.7397 89° East 514 592 35,900 480 Climbing Salt Lake Center
Fri 03:35:20 PM 44.0936 -111.5186 89° East 516 594 36,400 480 Climbing Salt Lake Center
Fri 03:36:22 PM 44.0936 -111.3306 90° East 513 590 36,900 290 Climbing Salt Lake Center
Fri 03:37:24 PM 44.0939 -111.1117 90° East 512 589 37,000 48 Climbing Salt Lake Center
Fri 03:38:26 PM 44.0931 -110.9222 90° East 514 592 37,000  Level Salt Lake Center
Fri 03:39:28 PM 44.0928 -110.7017 90° East 513 590 37,000  Level Salt Lake Center
Fri 03:40:30 PM 44.0942 -110.5108 89° East 516 594 37,000  Level Salt Lake Center
Fri 03:41:32 PM 44.0911 -110.2900 91° East 512 589 37,000  Level Salt Lake Center
Fri 03:42:34 PM 44.0917 -110.1008 90° East 512 589 37,000  Level Salt Lake Center
Fri 03:43:36 PM 44.0886 -109.8794 91° East 515 593 37,000  Level Salt Lake Center
Fri 03:45:00 PM 44.0589 -109.6408 98° East  Level FlightAware Approximate
Fri 03:45:40 PM 44.0569 -109.4758 98° East 507 583 37,000  Level Salt Lake Center
Fri 03:46:42 PM 44.0356 -109.2806 99° East 500 575 37,000  Level Salt Lake Center
Fri 03:47:44 PM 44.0153 -109.0883 98° East 503 579 37,000  Level Salt Lake Center
Fri 03:48:46 PM 43.9967 -108.8956 98° East 507 583 37,000  Level Salt Lake Center
Fri 03:49:48 PM 43.9764 -108.7036 98° East 505 581 37,000  Level Salt Lake Center
Fri 03:50:50 PM 43.9567 -108.5108 98° East 508 585 37,000  Level Salt Lake Center
Fri 03:51:52 PM 43.9364 -108.3208 98° East 504 580 37,000  Level Salt Lake Center
Fri 03:52:54 PM 43.9114 -108.0911 99° East 505 581 37,000  Level Salt Lake Center
Fri 03:53:56 PM 43.8903 -107.8997 99° East 506 582 37,000  Level Salt Lake Center
Fri 03:54:58 PM 43.8692 -107.7086 99° East 506 582 37,000  Level Salt Lake Center
Fri 03:57:02 PM 43.8244 -107.3267 99° East 507 583 37,000  Level Salt Lake Center
Fri 03:58:04 PM 43.7958 -107.0997 100° East 508 585 37,000  Level Salt Lake Center
Fri 03:59:06 PM 43.7722 -106.9072 100° East 509 586 37,000  Level Salt Lake Center
Fri 04:00:08 PM 43.7536 -106.7244 98° East 505 581 37,000  Level Salt Lake Center
Fri 04:01:10 PM 43.7300 -106.5064 98° East 511 588 37,000  Level Salt Lake Center
Fri 04:02:12 PM 43.7047 -106.3228 101° East 513 590 37,000  Level Salt Lake Center
Fri 04:03:14 PM 43.6797 -106.1069 99° East 510 587 37,000  Level Salt Lake Center
Fri 04:04:16 PM 43.6558 -105.9236 100° East 507 583 37,000  Level Salt Lake Center
Fri 04:05:18 PM 43.6353 -105.7019 97° East 516 594 37,000  Level Salt Lake Center
Fri 04:06:20 PM 43.6300 -105.5139 92° East 516 594 37,000  Level Salt Lake Center
Fri 04:07:22 PM 43.6206 -105.2936 93° East 514 592 37,000  Level Salt Lake Center
Fri 04:08:30 PM 43.6103 -105.0769 94° East 508 585 37,000  Level Denver Center
Fri 04:09:32 PM 43.6014 -104.8908 94° East 507 583 37,000  Level Denver Center
Fri 04:10:46 PM 43.5911 -104.6750 94° East 505 581 37,000  Level Denver Center
Fri 04:11:49 PM 43.5797 -104.4594 94° East 504 580 37,000  Level Denver Center
Fri 04:12:51 PM 43.5686 -104.2439 94° East 503 579 37,000  Level Denver Center
Fri 04:13:53 PM 43.5589 -104.0594 94° East 503 579 37,000  Level Denver Center
Fri 04:14:55 PM 43.5472 -103.8444 94° East 503 579 37,000  Level Denver Center
Fri 04:15:57 PM 43.5369 -103.6594 94° East 505 581 37,000  Level Denver Center
Fri 04:16:59 PM 43.5256 -103.4472 94° East 498 573 37,000  Level Denver Center
Fri 04:18:01 PM 43.5142 -103.2611 95° East 505 581 37,000  Level Denver Center
Fri 04:19:03 PM 43.5003 -103.0444 95° East 508 585 37,000  Level Denver Center
Fri 04:20:17 PM 43.4883 -102.8611 95° East 502 578 37,000  Level Denver Center
Fri 04:21:20 PM 43.4719 -102.6147 95° East 506 582 37,000  Level Denver Center
Fri 04:22:22 PM 43.4600 -102.4322 95° East 500 575 37,000  Level Denver Center
Fri 04:23:24 PM 43.4456 -102.2169 95° East 505 581 37,000  Level Denver Center
Fri 04:24:26 PM 43.4314 -102.0325 96° East 501 577 37,000  Level Denver Center
Fri 04:25:28 PM 43.4178 -101.8431 96° East 499 574 37,000  Level Denver Center
Fri 04:26:30 PM 43.4044 -101.6547 96° East 497 572 37,000  Level Denver Center
Fri 04:27:32 PM 43.3892 -101.4667 96° East 496 571 37,000  Level Denver Center
Fri 04:28:34 PM 43.3722 -101.2414 96° East 495 570 37,000  Level Denver Center
Fri 04:29:36 PM 43.3575 -101.0553 96° East 493 567 37,000  Level Denver Center
Fri 04:30:38 PM 43.3417 -100.8675 97° East 493 567 37,000  Level Denver Center
Fri 04:31:40 PM 43.3267 -100.6794 96° East 498 573 37,000  Level Denver Center
Fri 04:32:19 PM 43.3186 -100.5711 96° East 495 570 37,000  Level Minneapolis Center
Fri 04:33:21 PM 43.3028 -100.3858 97° East 493 567 37,000  Level Minneapolis Center
Fri 04:34:23 PM 43.2828 -100.1628 97° East 493 567 37,000  Level Minneapolis Center
Fri 04:35:25 PM 43.2664 -99.9750 97° East 495 570 37,000  Level Minneapolis Center
Fri 04:36:27 PM 43.2497 -99.7894 97° East 493 567 37,000  Level Minneapolis Center
Fri 04:37:29 PM 43.2325 -99.6022 97° East 496 571 37,000  Level Minneapolis Center
Fri 04:38:31 PM 43.2147 -99.4161 97° East 494 568 37,000  Level Minneapolis Center
Fri 04:39:33 PM 43.1936 -99.1942 97° East 491 565 37,000  Level Minneapolis Center
Fri 04:40:35 PM 43.1756 -99.0075 97° East 495 570 37,000  Level Minneapolis Center
Fri 04:41:38 PM 43.1594 -98.8325 97° East 491 565 37,000  Level Minneapolis Center
Fri 04:42:40 PM 43.1406 -98.6478 98° East 491 565 37,000  Level Minneapolis Center
Fri 04:43:42 PM 43.1211 -98.4625 98° East 493 567 37,000  Level Minneapolis Center
Fri 04:44:44 PM 43.0983 -98.2397 98° East 495 570 37,000  Level Minneapolis Center
Fri 04:45:46 PM 43.0789 -98.0597 98° East 484 557 37,000  Level Minneapolis Center
Fri 04:46:48 PM 43.0600 -97.8831 98° East 475 547 37,000  Level Minneapolis Center
Fri 04:47:50 PM 43.0397 -97.7058 99° East 474 545 37,000  Level Minneapolis Center
Fri 04:48:52 PM 43.0211 -97.5300 98° East 471 542 37,000  Level Minneapolis Center
Fri 04:49:54 PM 42.9969 -97.3197 99° East 469 540 37,000  Level Minneapolis Center
Fri 04:50:56 PM 42.9772 -97.1431 99° East 473 544 37,000  Level Minneapolis Center
Fri 04:51:58 PM 42.9569 -96.9689 99° East 469 540 37,000  Level Minneapolis Center
Fri 04:53:00 PM 42.9358 -96.7911 99° East 475 547 37,000  Level Minneapolis Center
Fri 04:54:02 PM 42.9150 -96.6153 99° East 474 545 37,000  Level Minneapolis Center
Fri 04:55:04 PM 42.8894 -96.4039 99° East 474 545 37,000  Level Minneapolis Center
Fri 04:56:06 PM 42.8681 -96.2283 99° East 473 544 37,000  Level Minneapolis Center
Fri 04:57:09 PM 42.8458 -96.0547 100° East 470 541 37,000  Level Minneapolis Center
Fri 04:58:11 PM 42.8233 -95.8831 100° East 466 536 37,000  Level Minneapolis Center
Fri 04:59:13 PM 42.8000 -95.7053 100° East 473 544 37,000  Level Minneapolis Center
Fri 05:00:16 PM 42.7733 -95.4958 100° East 471 542 37,000  Level Minneapolis Center
Fri 05:01:18 PM 42.7506 -95.3225 100° East 470 541 37,000  Level Minneapolis Center
Fri 05:02:20 PM 42.7281 -95.1494 100° East 468 539 37,000  Level Minneapolis Center
Fri 05:03:22 PM 42.7053 -94.9772 100° East 467 537 37,000  Level Minneapolis Center
Fri 05:04:24 PM 42.6811 -94.8044 101° East 467 537 37,000  Level Minneapolis Center
Fri 05:05:26 PM 42.6581 -94.6325 100° East 466 536 37,000  Level Minneapolis Center
Fri 05:06:28 PM 42.6289 -94.4281 101° East 474 545 37,000  Level Minneapolis Center
Fri 05:07:30 PM 42.6075 -94.2578 100° East 466 536 37,000  Level Minneapolis Center
Fri 05:08:32 PM 42.6039 -94.0864 92° East 461 531 37,000  Level Minneapolis Center
Fri 05:09:34 PM 42.5986 -93.9128 92° East 464 534 37,000  Level Minneapolis Center
Fri 05:10:36 PM 42.5928 -93.7414 93° East 461 531 37,000  Level Minneapolis Center
Fri 05:11:38 PM 42.5858 -93.5372 93° East 457 526 37,000  Level Minneapolis Center
Fri 05:12:40 PM 42.5792 -93.3650 93° East 460 529 37,000  Level Minneapolis Center
Fri 05:13:43 PM 42.5731 -93.1936 93° East 462 532 37,000  Level Minneapolis Center
Fri 05:14:34 PM 42.5683 -93.0553 93° East 460 529 37,000 -159 Level Chicago Center
Fri 05:15:36 PM 42.5586 -92.8492 94° East 461 531 36,700 -629 Descending Chicago Center
Fri 05:16:38 PM 42.5514 -92.6753 93° East 465 535 35,700 -968 Descending Chicago Center
Fri 05:17:40 PM 42.5442 -92.5011 93° East 468 539 34,700 -968 Descending Chicago Center
Fri 05:18:42 PM 42.5356 -92.3319 94° East 458 527 33,700 -823 Descending Chicago Center
Fri 05:19:44 PM 42.5258 -92.1292 94° East 456 525 33,000 -677 Descending Chicago Center
Fri 05:20:46 PM 42.5231 -91.9583 91° East 461 531 32,300 -823 Descending Chicago Center
Fri 05:21:48 PM 42.5253 -91.7836 89° East 469 540 31,300 -968 Descending Chicago Center
Fri 05:22:50 PM 42.5258 -91.6114 90° East 469 540 30,300 -1,056 Descending Chicago Center
Fri 05:23:53 PM 42.5272 -91.4103 89° East 457 526 29,100 -629 Descending Chicago Center
Fri 05:24:54 PM 42.5272 -91.2453 90° East 448 516 29,000 -48 Descending Chicago Center
Fri 05:25:57 PM 42.5267 -91.0833 90° East 439 505 29,000  Level Chicago Center
Fri 05:26:59 PM 42.5267 -90.9203 90° East 438 504 29,000 -435 Level Chicago Center
Fri 05:28:01 PM 42.5233 -90.7250 91° East 437 503 28,100 -919 Descending Chicago Center
Fri 05:29:03 PM 42.5244 -90.5636 89° East 433 498 27,100 -968 Descending Chicago Center
Fri 05:30:05 PM 42.5233 -90.4058 90° East 426 490 26,100 -968 Descending Chicago Center
Fri 05:31:07 PM 42.5219 -90.2514 91° East 417 480 25,100 -968 Descending Chicago Center
Fri 05:32:09 PM 42.5200 -90.0944 91° East 420 483 24,100 -1,210 Descending Chicago Center
Fri 05:33:11 PM 42.5189 -89.9031 90° East 424 488 22,600 -1,306 Descending Chicago Center
Fri 05:34:13 PM 42.5178 -89.7481 91° East 414 476 21,400 -1,161 Descending Chicago Center
Fri 05:35:15 PM 42.5161 -89.6017 91° East 391 450 20,200 -1,152 Descending Chicago Center
Fri 05:36:18 PM 42.5131 -89.4594 92° East 381 438 19,000 -1,872 Descending Chicago Center
Fri 05:37:20 PM 42.5167 -89.2972 88° East 369 425 16,300 -2,516 Descending Chicago Center
Fri 05:38:22 PM 42.5675 -89.1814 59° Northeast 357 411 13,800 -1,597 Descending Chicago Center
Fri 05:39:24 PM 42.5833 -89.0606 80° East 327 376 13,000 -532 Descending Chicago Center
Fri 05:40:26 PM 42.5886 -88.9431 86° East 314 361 12,700 -629 Descending Chicago Center
Fri 05:41:28 PM 42.5553 -88.8375 113° Southeast 312 359 11,700 -968 Descending Chicago Center
Fri 05:42:30 PM 42.5061 -88.7425 125° Southeast 308 354 10,700 -1,065 Descending Chicago Center
Fri 05:43:32 PM 42.4514 -88.6417 126° Southeast 286 329 9,500 -823 Descending Chicago Center
Fri 05:44:34 PM 42.4044 -88.5567 127° Southeast 283 326 9,000 -242 Descending Chicago Center
Fri 05:45:36 PM 42.3572 -88.4733 127° Southeast 279 321 9,000 -240 Level Chicago Center
Fri 05:46:39 PM 42.3119 -88.3947 128° Southeast 280 322 8,500 -864 Descending Chicago Center
Fri 05:47:41 PM 42.2569 -88.2978 127° Southeast 275 316 7,200 -1,161 Descending Chicago Center
Fri 05:48:43 PM 42.2181 -88.2286 127° Southeast 242 278 6,100 -919 Descending Chicago Center
Fri 05:49:45 PM 42.1803 -88.1636 128° Southeast 226 260 5,300 -537 Descending Chicago Center
Fri 05:50:46 PM 42.1525 -88.1150 128° Southeast 215 247 5,000 -659 Descending Chicago Center
Fri 05:51:16 PM 42.1167 -88.0833 147° Southeast 198 228 4,300 -1,333 Descending Chicago TRACON
Fri 05:52:16 PM 42.0833 -88.0333 132° Southeast 190 219 3,000 -1,300 Descending Chicago TRACON

Login

Don't have an account? Register now (free) for customized features, flight alerts, and more!